createdAt,value
2018-09-25T00:00:16.631Z,0
2018-09-25T00:00:57.173Z,0
2018-09-25T00:01:37.758Z,0
2018-09-25T00:02:18.347Z,0
2018-09-25T00:02:58.909Z,0
2018-09-25T00:03:39.479Z,0
2018-09-25T00:04:20.025Z,0
2018-09-25T00:05:00.584Z,0
2018-09-25T00:05:41.147Z,0
2018-09-25T00:06:21.710Z,0
2018-09-25T00:07:02.257Z,0
2018-09-25T00:07:42.821Z,0
2018-09-25T00:08:23.424Z,0
2018-09-25T00:09:03.983Z,0
2018-09-25T00:09:44.540Z,0
2018-09-25T00:10:25.136Z,0
2018-09-25T00:11:05.641Z,0
2018-09-25T00:11:46.217Z,0
2018-09-25T00:12:26.746Z,0
2018-09-25T00:13:07.318Z,0
2018-09-25T00:13:47.875Z,0
2018-09-25T00:14:28.423Z,0
2018-09-25T00:15:08.974Z,0
2018-09-25T00:15:49.529Z,0
2018-09-25T00:16:30.073Z,0
2018-09-25T00:17:10.631Z,0
2018-09-25T00:17:51.200Z,0
2018-09-25T00:18:31.756Z,0
2018-09-25T00:19:12.323Z,0
2018-09-25T00:19:52.907Z,0
2018-09-25T00:20:33.466Z,0
2018-09-25T00:21:14.019Z,0
2018-09-25T00:21:54.572Z,0
2018-09-25T00:22:35.129Z,0
2018-09-25T00:23:15.727Z,0
2018-09-25T00:23:56.307Z,0
2018-09-25T00:24:36.877Z,0
2018-09-25T00:25:17.434Z,0
2018-09-25T00:25:57.988Z,0
2018-09-25T00:26:38.542Z,0
2018-09-25T00:27:19.097Z,0
2018-09-25T00:27:59.651Z,0
2018-09-25T00:28:40.206Z,0
2018-09-25T00:29:20.817Z,0
2018-09-25T00:30:01.392Z,0
2018-09-25T00:30:41.939Z,0
2018-09-25T00:31:22.487Z,0
2018-09-25T00:32:03.071Z,0
2018-09-25T00:32:43.620Z,0
2018-09-25T00:33:24.162Z,0
2018-09-25T00:34:04.725Z,0
2018-09-25T00:34:45.262Z,0
2018-09-25T00:35:25.833Z,0
2018-09-25T00:36:06.379Z,0
2018-09-25T00:36:46.942Z,0
2018-09-25T00:37:27.523Z,0
2018-09-25T00:38:08.077Z,0
2018-09-25T00:38:48.644Z,0
2018-09-25T00:39:29.197Z,0
2018-09-25T00:40:09.742Z,0
2018-09-25T00:40:50.297Z,0
2018-09-25T00:41:30.889Z,0
2018-09-25T00:42:11.462Z,0
2018-09-25T00:42:52.026Z,0
2018-09-25T00:43:32.599Z,0
2018-09-25T00:44:13.187Z,0
2018-09-25T00:44:53.738Z,0
2018-09-25T00:45:34.299Z,0
2018-09-25T00:46:14.849Z,0
2018-09-25T00:46:55.457Z,0
2018-09-25T00:47:35.989Z,0
2018-09-25T00:48:16.554Z,0
2018-09-25T00:48:57.109Z,0
2018-09-25T00:49:37.657Z,0
2018-09-25T00:50:18.218Z,0
2018-09-25T00:50:58.771Z,0
2018-09-25T00:51:39.324Z,0
2018-09-25T00:52:19.886Z,0
2018-09-25T00:53:00.458Z,0
2018-09-25T00:53:41.037Z,0
2018-09-25T00:54:21.595Z,0
2018-09-25T00:55:02.168Z,0
2018-09-25T00:55:42.768Z,0
2018-09-25T00:56:23.348Z,0
2018-09-25T00:57:03.921Z,0
2018-09-25T00:57:44.508Z,0
2018-09-25T00:58:25.057Z,0
2018-09-25T00:59:05.630Z,0
2018-09-25T00:59:46.197Z,0
2018-09-25T01:00:26.755Z,0
2018-09-25T01:01:07.306Z,0
2018-09-25T01:01:47.892Z,0
2018-09-25T01:02:28.462Z,0
2018-09-25T01:03:09.017Z,0
2018-09-25T01:03:49.565Z,0
2018-09-25T01:04:30.131Z,0
2018-09-25T01:05:10.688Z,0
2018-09-25T01:05:51.237Z,0
2018-09-25T01:06:31.778Z,0
2018-09-25T01:07:12.336Z,0
2018-09-25T01:07:52.923Z,0
2018-09-25T01:08:33.475Z,0
2018-09-25T01:09:14.030Z,0
2018-09-25T01:09:54.589Z,0
2018-09-25T01:10:35.129Z,0
2018-09-25T01:11:15.697Z,0
2018-09-25T01:11:56.258Z,0
2018-09-25T01:12:36.802Z,0
2018-09-25T01:13:17.366Z,0
2018-09-25T01:13:57.915Z,0
2018-09-25T01:14:38.514Z,0
2018-09-25T01:15:19.081Z,0
2018-09-25T01:15:59.629Z,0
2018-09-25T01:16:40.192Z,0
2018-09-25T01:17:20.760Z,0
2018-09-25T01:18:01.346Z,0
2018-09-25T01:18:41.899Z,0
2018-09-25T01:19:22.445Z,0
2018-09-25T01:20:02.999Z,0
2018-09-25T01:20:43.555Z,0
2018-09-25T01:21:24.128Z,0
2018-09-25T01:22:04.687Z,0
2018-09-25T01:22:45.263Z,0
2018-09-25T01:23:25.844Z,0
2018-09-25T01:24:06.395Z,0
2018-09-25T01:24:46.950Z,0
2018-09-25T01:25:27.499Z,0
2018-09-25T01:26:08.060Z,0
2018-09-25T01:26:48.632Z,0
2018-09-25T01:27:29.189Z,0
2018-09-25T01:28:09.740Z,0
2018-09-25T01:28:50.307Z,0
2018-09-25T01:29:30.860Z,0
2018-09-25T01:30:11.415Z,0
2018-09-25T01:30:51.974Z,0
2018-09-25T01:31:32.535Z,0
2018-09-25T01:32:13.104Z,0
2018-09-25T01:32:53.660Z,0
2018-09-25T01:33:34.233Z,0
2018-09-25T01:34:14.794Z,0
2018-09-25T01:34:55.392Z,0
2018-09-25T01:35:35.947Z,0
2018-09-25T01:36:16.503Z,0
2018-09-25T01:36:57.065Z,0
2018-09-25T01:37:37.633Z,0
2018-09-25T01:38:18.197Z,0
2018-09-25T01:38:58.755Z,0
2018-09-25T01:39:39.316Z,0
2018-09-25T01:40:19.880Z,0
2018-09-25T01:41:00.437Z,0
2018-09-25T01:41:41.000Z,0
2018-09-25T01:42:21.547Z,0
2018-09-25T01:43:02.106Z,0
2018-09-25T01:43:42.658Z,0
2018-09-25T01:44:23.230Z,0
2018-09-25T01:45:03.785Z,0
2018-09-25T01:45:44.349Z,0
2018-09-25T01:46:24.917Z,0
2018-09-25T01:47:05.479Z,0
2018-09-25T01:47:46.037Z,0
2018-09-25T01:48:26.596Z,0
2018-09-25T01:49:07.150Z,0
2018-09-25T01:49:47.697Z,0
2018-09-25T01:50:28.268Z,0
2018-09-25T01:51:08.816Z,0
2018-09-25T01:51:49.377Z,0
2018-09-25T01:52:29.926Z,0
2018-09-25T01:53:10.488Z,0
2018-09-25T01:53:51.045Z,0
2018-09-25T01:54:31.610Z,0
2018-09-25T01:55:12.165Z,0
2018-09-25T01:55:52.732Z,0
2018-09-25T01:56:33.306Z,0
2018-09-25T01:57:13.869Z,0
2018-09-25T01:57:54.412Z,0
2018-09-25T01:58:34.982Z,0
2018-09-25T01:59:15.534Z,0
2018-09-25T01:59:56.095Z,0
2018-09-25T02:00:36.673Z,0
2018-09-25T02:01:17.216Z,0
2018-09-25T02:01:57.788Z,0
2018-09-25T02:02:38.370Z,0
2018-09-25T02:03:18.959Z,0
2018-09-25T02:03:59.510Z,0
2018-09-25T02:04:40.104Z,0
2018-09-25T02:05:20.656Z,0
2018-09-25T02:06:01.263Z,0
2018-09-25T02:06:41.842Z,0
2018-09-25T02:07:22.385Z,0
2018-09-25T02:08:02.994Z,0
2018-09-25T02:08:43.549Z,0
2018-09-25T02:09:24.132Z,0
2018-09-25T02:10:04.709Z,0
2018-09-25T02:10:45.263Z,0
2018-09-25T02:11:25.811Z,0
2018-09-25T02:12:06.381Z,0
2018-09-25T02:12:46.941Z,0
2018-09-25T02:13:27.529Z,0
2018-09-25T02:14:08.107Z,0
2018-09-25T02:14:48.671Z,0
2018-09-25T02:15:29.218Z,0
2018-09-25T02:16:09.782Z,0
2018-09-25T02:16:50.352Z,0
2018-09-25T02:17:30.890Z,0
2018-09-25T02:18:11.434Z,0
2018-09-25T02:18:51.995Z,0
2018-09-25T02:19:32.572Z,0
2018-09-25T02:20:13.119Z,0
2018-09-25T02:20:53.673Z,0
2018-09-25T02:21:34.220Z,0
2018-09-25T02:22:14.791Z,0
2018-09-25T02:22:55.356Z,0
2018-09-25T02:23:35.911Z,0
2018-09-25T02:24:16.470Z,0
2018-09-25T02:24:57.025Z,0
2018-09-25T02:25:37.579Z,0
2018-09-25T02:26:18.145Z,0
2018-09-25T02:26:58.704Z,0
2018-09-25T02:27:39.255Z,0
2018-09-25T02:28:19.814Z,0
2018-09-25T02:29:00.376Z,0
2018-09-25T02:29:40.945Z,0
2018-09-25T02:30:21.489Z,0
2018-09-25T02:31:02.052Z,0
2018-09-25T02:31:42.629Z,0
2018-09-25T02:32:23.195Z,0
2018-09-25T02:33:03.745Z,0
2018-09-25T02:33:44.324Z,0
2018-09-25T02:34:24.908Z,0
2018-09-25T02:35:05.476Z,0
2018-09-25T02:35:46.135Z,0
2018-09-25T02:36:26.683Z,0
2018-09-25T02:37:07.276Z,0
2018-09-25T02:37:47.841Z,0
2018-09-25T02:38:28.395Z,0
2018-09-25T02:39:08.960Z,0
2018-09-25T02:39:49.517Z,0
2018-09-25T02:40:30.069Z,0
2018-09-25T02:41:10.632Z,0
2018-09-25T02:41:51.180Z,0
2018-09-25T02:42:31.728Z,0
2018-09-25T02:43:12.276Z,0
2018-09-25T02:43:52.853Z,0
2018-09-25T02:44:33.391Z,0
2018-09-25T02:45:13.969Z,0
2018-09-25T02:45:54.543Z,0
2018-09-25T02:46:35.101Z,0
2018-09-25T02:47:15.671Z,0
2018-09-25T02:47:56.243Z,0
2018-09-25T02:48:36.839Z,0
2018-09-25T02:49:17.414Z,0
2018-09-25T02:49:58.002Z,0
2018-09-25T02:50:38.548Z,0
2018-09-25T02:51:19.133Z,0
2018-09-25T02:51:59.723Z,0
2018-09-25T02:52:40.279Z,0
2018-09-25T02:53:20.866Z,0
2018-09-25T02:54:01.431Z,0
2018-09-25T02:54:42.010Z,0
2018-09-25T02:55:22.593Z,0
2018-09-25T02:56:03.148Z,0
2018-09-25T02:56:43.692Z,0
2018-09-25T02:57:24.261Z,0
2018-09-25T02:58:04.819Z,0
2018-09-25T02:58:45.365Z,0
2018-09-25T02:59:25.963Z,0
2018-09-25T03:00:06.518Z,0
2018-09-25T03:00:47.078Z,0
2018-09-25T03:01:27.632Z,0
2018-09-25T03:02:08.203Z,0
2018-09-25T03:02:48.784Z,0
2018-09-25T03:03:29.336Z,0
2018-09-25T03:04:09.923Z,0
2018-09-25T03:04:50.498Z,0
2018-09-25T03:05:31.034Z,0
2018-09-25T03:06:11.615Z,0
2018-09-25T03:06:52.185Z,0
2018-09-25T03:07:32.734Z,0
2018-09-25T03:08:13.294Z,0
2018-09-25T03:08:53.844Z,0
2018-09-25T03:09:34.492Z,0
2018-09-25T03:10:15.065Z,0
2018-09-25T03:10:55.621Z,0
2018-09-25T03:11:36.177Z,0
2018-09-25T03:12:16.740Z,0
2018-09-25T03:12:57.297Z,0
2018-09-25T03:13:37.853Z,0
2018-09-25T03:14:18.410Z,0
2018-09-25T03:14:58.978Z,0
2018-09-25T03:15:39.568Z,0
2018-09-25T03:16:20.125Z,0
2018-09-25T03:17:00.676Z,0
2018-09-25T03:17:41.266Z,0
2018-09-25T03:18:21.829Z,0
2018-09-25T03:19:02.389Z,0
2018-09-25T03:19:42.942Z,0
2018-09-25T03:20:23.572Z,0
2018-09-25T03:21:04.040Z,0
2018-09-25T03:21:44.604Z,0
2018-09-25T03:22:25.184Z,0
2018-09-25T03:23:05.737Z,0
2018-09-25T03:23:46.469Z,0
2018-09-25T03:24:26.878Z,0
2018-09-25T03:25:07.453Z,0
2018-09-25T03:25:48.024Z,0
2018-09-25T03:26:28.555Z,0
2018-09-25T03:27:09.106Z,0
2018-09-25T03:27:50.354Z,0
2018-09-25T03:28:30.243Z,0
2018-09-25T03:29:10.833Z,0
2018-09-25T03:29:51.410Z,0
2018-09-25T03:30:31.986Z,0
2018-09-25T03:31:12.606Z,0
2018-09-25T03:31:53.116Z,0
2018-09-25T03:32:33.690Z,0
2018-09-25T03:33:14.234Z,0
2018-09-25T03:33:54.782Z,0
2018-09-25T03:34:35.332Z,0
2018-09-25T03:35:15.934Z,0
2018-09-25T03:35:56.520Z,0
2018-09-25T03:36:37.077Z,0
2018-09-25T03:37:17.645Z,0
2018-09-25T03:37:58.196Z,0
2018-09-25T03:38:38.763Z,0
2018-09-25T03:39:19.340Z,0
2018-09-25T03:39:59.922Z,0
2018-09-25T03:40:40.482Z,0
2018-09-25T03:41:21.044Z,0
2018-09-25T03:42:01.630Z,0
2018-09-25T03:42:42.183Z,0
2018-09-25T03:43:22.726Z,0
2018-09-25T03:44:03.308Z,0
2018-09-25T03:44:43.907Z,0
2018-09-25T03:45:24.463Z,0
2018-09-25T03:46:05.010Z,0
2018-09-25T03:46:45.584Z,0
2018-09-25T03:47:26.164Z,0
2018-09-25T03:48:06.736Z,0
2018-09-25T03:48:47.288Z,0
2018-09-25T03:49:27.863Z,0
2018-09-25T03:50:08.439Z,0
2018-09-25T03:50:49.000Z,0
2018-09-25T03:51:29.570Z,0
2018-09-25T03:52:10.136Z,0
2018-09-25T03:52:50.711Z,0
2018-09-25T03:53:31.255Z,0
2018-09-25T03:54:11.821Z,0
2018-09-25T03:54:52.425Z,0
2018-09-25T03:55:33.013Z,0
2018-09-25T03:56:13.573Z,0
2018-09-25T03:56:54.150Z,0
2018-09-25T03:57:34.714Z,0
2018-09-25T03:58:15.293Z,0
2018-09-25T03:58:55.857Z,0
2018-09-25T03:59:36.496Z,0
2018-09-25T04:00:16.975Z,0
2018-09-25T04:00:57.530Z,0
2018-09-25T04:01:38.092Z,0
2018-09-25T04:02:18.673Z,0
2018-09-25T04:02:59.210Z,0
2018-09-25T04:03:39.774Z,0
2018-09-25T04:04:20.326Z,0
2018-09-25T04:05:01.036Z,0
2018-09-25T04:05:41.678Z,0
2018-09-25T04:06:22.340Z,0
2018-09-25T04:07:02.827Z,0
2018-09-25T04:07:43.379Z,0
2018-09-25T04:08:23.948Z,0
2018-09-25T04:09:04.476Z,0
2018-09-25T04:09:45.054Z,0
2018-09-25T04:10:25.615Z,0
2018-09-25T04:11:06.193Z,0
2018-09-25T04:11:46.765Z,0
2018-09-25T04:12:27.326Z,0
2018-09-25T04:13:07.882Z,0
2018-09-25T04:13:48.435Z,0
2018-09-25T04:14:28.992Z,0
2018-09-25T04:15:09.540Z,0
2018-09-25T04:15:50.100Z,0
2018-09-25T04:16:30.664Z,0
2018-09-25T04:17:11.269Z,0
2018-09-25T04:17:51.832Z,0
2018-09-25T04:18:32.403Z,0
2018-09-25T04:19:12.970Z,0
2018-09-25T04:19:53.537Z,0
2018-09-25T04:20:34.123Z,0
2018-09-25T04:21:14.706Z,0
2018-09-25T04:21:55.276Z,0
2018-09-25T04:22:35.833Z,0
2018-09-25T04:23:16.387Z,0
2018-09-25T04:23:56.937Z,0
2018-09-25T04:24:37.534Z,0
2018-09-25T04:25:18.088Z,4
2018-09-25T04:25:58.639Z,4
2018-09-25T04:26:39.192Z,4
2018-09-25T04:27:19.740Z,0
2018-09-25T04:28:00.310Z,0
2018-09-25T04:28:40.877Z,4
2018-09-25T04:29:21.437Z,4
2018-09-25T04:30:02.009Z,0
2018-09-25T04:30:42.576Z,4
2018-09-25T04:31:23.143Z,4
2018-09-25T04:32:03.702Z,4
2018-09-25T04:32:44.277Z,8
2018-09-25T04:33:24.827Z,8
2018-09-25T04:34:05.418Z,4
2018-09-25T04:34:45.974Z,8
2018-09-25T04:35:26.536Z,8
2018-09-25T04:36:07.085Z,12
2018-09-25T04:36:47.662Z,12
2018-09-25T04:37:28.233Z,12
2018-09-25T04:38:08.778Z,16
2018-09-25T04:38:49.327Z,20
2018-09-25T04:39:29.871Z,20
2018-09-25T04:40:10.436Z,24
2018-09-25T04:40:51.005Z,24
2018-09-25T04:41:31.579Z,28
2018-09-25T04:42:12.148Z,32
2018-09-25T04:42:52.745Z,32
2018-09-25T04:43:33.285Z,36
2018-09-25T04:44:13.898Z,40
2018-09-25T04:44:54.452Z,48
2018-09-25T04:45:35.020Z,48
2018-09-25T04:46:15.696Z,56
2018-09-25T04:46:56.325Z,56
2018-09-25T04:47:36.875Z,64
2018-09-25T04:48:17.425Z,72
2018-09-25T04:48:57.997Z,76
2018-09-25T04:49:38.557Z,84
2018-09-25T04:50:19.119Z,88
2018-09-25T04:50:59.670Z,96
2018-09-25T04:51:40.268Z,104
2018-09-25T04:52:20.823Z,112
2018-09-25T04:53:01.507Z,120
2018-09-25T04:53:42.075Z,128
2018-09-25T04:54:22.655Z,140
2018-09-25T04:55:03.210Z,148
2018-09-25T04:55:43.763Z,156
2018-09-25T04:56:24.307Z,168
2018-09-25T04:57:04.956Z,180
2018-09-25T04:57:45.481Z,192
2018-09-25T04:58:26.897Z,200
2018-09-25T04:59:07.402Z,216
2018-09-25T04:59:47.955Z,228
2018-09-25T05:00:28.526Z,240
2018-09-25T05:01:09.207Z,252
2018-09-25T05:01:50.716Z,268
2018-09-25T05:02:31.418Z,280
2018-09-25T05:03:12.301Z,296
2018-09-25T05:03:52.923Z,308
2018-09-25T05:04:33.486Z,324
2018-09-25T05:05:14.053Z,340
2018-09-25T05:05:54.623Z,356
2018-09-25T05:06:35.221Z,372
2018-09-25T05:07:15.778Z,392
2018-09-25T05:07:56.333Z,408
2018-09-25T05:08:36.891Z,428
2018-09-25T05:09:17.460Z,444
2018-09-25T05:09:58.021Z,464
2018-09-25T05:10:38.606Z,480
2018-09-25T05:11:19.160Z,504
2018-09-25T05:11:59.763Z,520
2018-09-25T05:12:40.275Z,540
2018-09-25T05:13:20.864Z,560
2018-09-25T05:14:04.295Z,580
2018-09-25T05:14:44.912Z,596
2018-09-25T05:15:25.430Z,616
2018-09-25T05:16:05.999Z,636
2018-09-25T05:16:46.605Z,656
2018-09-25T05:17:27.145Z,676
2018-09-25T05:18:12.012Z,700
2018-09-25T05:18:52.478Z,724
2018-09-25T05:19:33.040Z,740
2018-09-25T05:20:13.625Z,760
2018-09-25T05:20:54.174Z,784
2018-09-25T05:21:34.723Z,804
2018-09-25T05:22:15.286Z,824
2018-09-25T05:22:55.862Z,840
2018-09-25T05:23:36.479Z,860
2018-09-25T05:24:16.991Z,880
2018-09-25T05:24:57.641Z,896
2018-09-25T05:25:38.141Z,920
2018-09-25T05:26:18.689Z,936
2018-09-25T05:26:59.274Z,960
2018-09-25T05:27:39.818Z,980
2018-09-25T05:28:20.381Z,1000
2018-09-25T05:29:00.927Z,1016
2018-09-25T05:29:41.480Z,1036
2018-09-25T05:30:22.040Z,1056
2018-09-25T05:31:02.600Z,1076
2018-09-25T05:31:43.158Z,1096
2018-09-25T05:32:23.721Z,1116
2018-09-25T05:33:04.265Z,1136
2018-09-25T05:33:44.837Z,1156
2018-09-25T05:34:25.392Z,1172
2018-09-25T05:35:05.945Z,1188
2018-09-25T05:35:46.521Z,1208
2018-09-25T05:36:27.075Z,1224
2018-09-25T05:37:07.791Z,1240
2018-09-25T05:37:48.298Z,1256
2018-09-25T05:38:28.881Z,1276
2018-09-25T05:39:09.440Z,1300
2018-09-25T05:39:50.005Z,1320
2018-09-25T05:40:30.563Z,1336
2018-09-25T05:41:11.148Z,1356
2018-09-25T05:41:51.736Z,1372
2018-09-25T05:42:32.327Z,1392
2018-09-25T05:43:12.827Z,1412
2018-09-25T05:43:53.404Z,1432
2018-09-25T05:44:33.964Z,1448
2018-09-25T05:45:14.681Z,1464
2018-09-25T05:45:55.590Z,1480
2018-09-25T05:46:36.206Z,1500
2018-09-25T05:47:16.804Z,1520
2018-09-25T05:47:57.436Z,1536
2018-09-25T05:48:37.945Z,1560
2018-09-25T05:49:18.546Z,1580
2018-09-25T05:49:59.118Z,1596
2018-09-25T05:50:39.685Z,1608
2018-09-25T05:51:20.252Z,1628
2018-09-25T05:52:00.817Z,1644
2018-09-25T05:52:41.433Z,1668
2018-09-25T05:53:21.975Z,1692
2018-09-25T05:54:02.544Z,1708
2018-09-25T05:54:43.115Z,1728
2018-09-25T05:55:23.696Z,1748
2018-09-25T05:56:04.221Z,1768
2018-09-25T05:56:44.777Z,1784
2018-09-25T05:57:25.338Z,1800
2018-09-25T05:58:05.943Z,1820
2018-09-25T05:58:46.515Z,1836
2018-09-25T05:59:27.083Z,1848
2018-09-25T06:00:07.659Z,1864
2018-09-25T06:00:48.220Z,1880
2018-09-25T06:01:28.773Z,1900
2018-09-25T06:02:09.340Z,1912
2018-09-25T06:02:49.909Z,1924
2018-09-25T06:03:30.470Z,1940
2018-09-25T06:04:11.032Z,1956
2018-09-25T06:04:52.182Z,1972
2018-09-25T06:05:32.791Z,1988
2018-09-25T06:06:13.364Z,2004
2018-09-25T06:06:54.299Z,2028
2018-09-25T06:07:35.043Z,2052
2018-09-25T06:08:15.743Z,2076
2018-09-25T06:08:56.351Z,2104
2018-09-25T06:09:36.889Z,2116
2018-09-25T06:10:17.444Z,2132
2018-09-25T06:10:58.081Z,2144
2018-09-25T06:11:38.688Z,2148
2018-09-25T06:12:19.245Z,2156
2018-09-25T06:12:59.816Z,2168
2018-09-25T06:13:40.400Z,2184
2018-09-25T06:14:20.941Z,2196
2018-09-25T06:15:01.513Z,2208
2018-09-25T06:15:42.105Z,2220
2018-09-25T06:16:22.984Z,2236
2018-09-25T06:17:03.599Z,2260
2018-09-25T06:17:44.163Z,2288
2018-09-25T06:18:24.731Z,2320
2018-09-25T06:19:05.393Z,2348
2018-09-25T06:19:46.157Z,2360
2018-09-25T06:20:26.719Z,2368
2018-09-25T06:21:08.484Z,2392
2018-09-25T06:21:49.098Z,2400
2018-09-25T06:22:29.656Z,2424
2018-09-25T06:23:10.281Z,2436
2018-09-25T06:23:50.833Z,2444
2018-09-25T06:24:31.402Z,2456
2018-09-25T06:25:14.243Z,2480
2018-09-25T06:25:54.852Z,2496
2018-09-25T06:26:35.448Z,2508
2018-09-25T06:27:16.078Z,2524
2018-09-25T06:27:56.905Z,2544
2018-09-25T06:28:38.004Z,2556
2018-09-25T06:29:18.774Z,2572
2018-09-25T06:29:59.295Z,2584
2018-09-25T06:30:40.152Z,2608
2018-09-25T06:31:20.743Z,2632
2018-09-25T06:32:01.482Z,2644
2018-09-25T06:32:42.083Z,2656
2018-09-25T06:33:22.665Z,2664
2018-09-25T06:34:03.280Z,2684
2018-09-25T06:34:43.901Z,2704
2018-09-25T06:35:24.500Z,2712
2018-09-25T06:36:05.107Z,2716
2018-09-25T06:36:45.596Z,2724
2018-09-25T06:37:26.268Z,2740
2018-09-25T06:38:06.725Z,2756
2018-09-25T06:38:47.303Z,2768
2018-09-25T06:39:27.872Z,2768
2018-09-25T06:40:08.464Z,2776
2018-09-25T06:40:49.054Z,2796
2018-09-25T06:41:29.571Z,2820
2018-09-25T06:42:10.147Z,2844
2018-09-25T06:42:51.457Z,2856
2018-09-25T06:43:32.304Z,2876
2018-09-25T06:44:12.858Z,2888
2018-09-25T06:44:55.175Z,2892
2018-09-25T06:45:35.738Z,2912
2018-09-25T06:46:16.448Z,2932
2018-09-25T06:46:57.017Z,2956
2018-09-25T06:47:38.819Z,2972
2018-09-25T06:48:19.337Z,2980
2018-09-25T06:48:59.908Z,2992
2018-09-25T06:49:40.661Z,3020
2018-09-25T06:50:21.545Z,3052
2018-09-25T06:51:02.260Z,3072
2018-09-25T06:51:42.885Z,3092
2018-09-25T06:52:23.434Z,3112
2018-09-25T06:53:04.005Z,3128
2018-09-25T06:53:44.563Z,3144
2018-09-25T06:54:25.216Z,3164
2018-09-25T06:55:05.978Z,3200
2018-09-25T06:55:46.413Z,3228
2018-09-25T06:56:27.001Z,3256
2018-09-25T06:57:08.047Z,3272
2018-09-25T06:57:48.823Z,3296
2018-09-25T06:58:29.425Z,3316
2018-09-25T06:59:09.994Z,3340
2018-09-25T06:59:50.572Z,3360
2018-09-25T07:00:31.107Z,3372
2018-09-25T07:01:11.681Z,3380
2018-09-25T07:01:52.264Z,3404
2018-09-25T07:02:32.832Z,3520
2018-09-25T07:03:13.391Z,3756
2018-09-25T07:03:53.938Z,5008
2018-09-25T07:04:34.492Z,4004
2018-09-25T07:05:15.051Z,3692
2018-09-25T07:05:55.607Z,3720
2018-09-25T07:06:36.168Z,3760
2018-09-25T07:07:16.726Z,3760
2018-09-25T07:07:57.449Z,4100
2018-09-25T07:08:37.987Z,4496
2018-09-25T07:09:18.547Z,4724
2018-09-25T07:09:59.240Z,9136
2018-09-25T07:10:39.797Z,17600
2018-09-25T07:11:20.213Z,14832
2018-09-25T07:12:00.774Z,12104
2018-09-25T07:12:41.324Z,7828
2018-09-25T07:13:21.886Z,6040
2018-09-25T07:14:02.428Z,11204
2018-09-25T07:14:42.983Z,5564
2018-09-25T07:15:23.528Z,8148
2018-09-25T07:16:04.088Z,6292
2018-09-25T07:16:44.698Z,5660
2018-09-25T07:17:25.216Z,7144
2018-09-25T07:18:05.838Z,6668
2018-09-25T07:18:46.354Z,6032
2018-09-25T07:19:26.918Z,6260
2018-09-25T07:20:07.500Z,9180
2018-09-25T07:20:48.111Z,13440
2018-09-25T07:21:28.721Z,14504
2018-09-25T07:22:09.281Z,11220
2018-09-25T07:22:50.246Z,10220
2018-09-25T07:23:30.772Z,18016
2018-09-25T07:24:11.334Z,35104
2018-09-25T07:24:51.944Z,55488
2018-09-25T07:25:32.493Z,66912
2018-09-25T07:26:13.045Z,71488
2018-09-25T07:26:53.613Z,76608
2018-09-25T07:27:34.179Z,84064
2018-09-25T07:28:14.712Z,85920
2018-09-25T07:28:55.278Z,87008
2018-09-25T07:29:35.839Z,88992
2018-09-25T07:30:16.405Z,89376
2018-09-25T07:30:57.014Z,92320
2018-09-25T07:31:37.528Z,93856
2018-09-25T07:32:18.102Z,93856
2018-09-25T07:32:58.663Z,94208
2018-09-25T07:33:39.232Z,93280
2018-09-25T07:34:19.800Z,93696
2018-09-25T07:35:00.360Z,94464
2018-09-25T07:35:40.926Z,95904
2018-09-25T07:36:21.486Z,96096
2018-09-25T07:37:02.057Z,97696
2018-09-25T07:37:42.622Z,99040
2018-09-25T07:38:23.186Z,96416
2018-09-25T07:39:03.753Z,96160
2018-09-25T07:39:44.402Z,97824
2018-09-25T07:40:24.904Z,98496
2018-09-25T07:41:05.488Z,98432
2018-09-25T07:41:46.066Z,99296
2018-09-25T07:42:26.613Z,100448
2018-09-25T07:43:07.183Z,98592
2018-09-25T07:43:47.751Z,97088
2018-09-25T07:44:28.317Z,95168
2018-09-25T07:45:08.889Z,91296
2018-09-25T07:45:49.454Z,91232
2018-09-25T07:46:30.017Z,92832
2018-09-25T07:47:10.582Z,95328
2018-09-25T07:47:51.151Z,97792
2018-09-25T07:48:31.729Z,98880
2018-09-25T07:49:15.236Z,97472
2018-09-25T07:49:55.821Z,100640
2018-09-25T07:50:36.381Z,102656
2018-09-25T07:51:16.932Z,100384
2018-09-25T07:51:57.498Z,98208
2018-09-25T07:52:38.054Z,97664
2018-09-25T07:53:18.629Z,94432
2018-09-25T07:53:59.197Z,92448
2018-09-25T07:54:39.773Z,92288
2018-09-25T07:55:20.336Z,94400
2018-09-25T07:56:00.893Z,94528
2018-09-25T07:56:41.449Z,94336
2018-09-25T07:57:22.040Z,92256
2018-09-25T07:58:02.656Z,91648
2018-09-25T07:58:43.226Z,88864
2018-09-25T07:59:23.792Z,87072
2018-09-25T08:00:04.368Z,85792
2018-09-25T08:00:44.945Z,87424
2018-09-25T08:01:25.526Z,88320
2018-09-25T08:02:06.091Z,89376
2018-09-25T08:02:46.661Z,88704
2018-09-25T08:03:27.319Z,86944
2018-09-25T08:04:07.828Z,86464
2018-09-25T08:04:48.390Z,86848
2018-09-25T08:05:29.008Z,87712
2018-09-25T08:06:09.726Z,88352
2018-09-25T08:06:50.302Z,86112
2018-09-25T08:07:30.879Z,84640
2018-09-25T08:08:11.426Z,86848
2018-09-25T08:08:52.287Z,91424
2018-09-25T08:09:32.888Z,89696
2018-09-25T08:10:13.473Z,88288
2018-09-25T08:10:54.043Z,88320
2018-09-25T08:11:34.647Z,87648
2018-09-25T08:12:15.214Z,85536
2018-09-25T08:12:55.799Z,83104
2018-09-25T08:13:36.362Z,77600
2018-09-25T08:14:16.936Z,69696
2018-09-25T08:14:57.498Z,65440
2018-09-25T08:15:38.081Z,60672
2018-09-25T08:16:18.675Z,56352
2018-09-25T08:16:59.257Z,51840
2018-09-25T08:17:39.834Z,45568
2018-09-25T08:18:20.398Z,37184
2018-09-25T08:19:00.976Z,29632
2018-09-25T08:19:41.539Z,24320
2018-09-25T08:20:22.137Z,22176
2018-09-25T08:21:02.709Z,20992
2018-09-25T08:21:43.304Z,20256
2018-09-25T08:22:23.876Z,19648
2018-09-25T08:23:04.442Z,18944
2018-09-25T08:23:45.001Z,18240
2018-09-25T08:24:25.583Z,17536
2018-09-25T08:25:06.206Z,16864
2018-09-25T08:25:46.800Z,16096
2018-09-25T08:26:27.373Z,15424
2018-09-25T08:27:07.938Z,14664
2018-09-25T08:27:48.512Z,14048
2018-09-25T08:28:29.110Z,13448
2018-09-25T08:29:09.711Z,12952
2018-09-25T08:29:50.365Z,12452
2018-09-25T08:30:30.860Z,11984
2018-09-25T08:31:11.416Z,11572
2018-09-25T08:31:51.996Z,11180
2018-09-25T08:32:32.561Z,10776
2018-09-25T08:33:13.128Z,10408
2018-09-25T08:33:53.691Z,10064
2018-09-25T08:34:34.271Z,9724
2018-09-25T08:35:14.847Z,9448
2018-09-25T08:35:55.421Z,9176
2018-09-25T08:36:35.986Z,8892
2018-09-25T08:37:16.543Z,8632
2018-09-25T08:37:57.116Z,8396
2018-09-25T08:38:37.903Z,8160
2018-09-25T08:39:18.533Z,7976
2018-09-25T08:39:58.980Z,7788
2018-09-25T08:40:39.549Z,7612
2018-09-25T08:41:20.127Z,7436
2018-09-25T08:42:00.689Z,7284
2018-09-25T08:42:41.281Z,7136
2018-09-25T08:43:21.848Z,6984
2018-09-25T08:44:02.406Z,6848
2018-09-25T08:44:43.007Z,6720
2018-09-25T08:45:23.559Z,6576
2018-09-25T08:46:04.161Z,6452
2018-09-25T08:46:44.743Z,6316
2018-09-25T08:47:25.308Z,6228
2018-09-25T08:48:05.908Z,6132
2018-09-25T08:48:46.478Z,6044
2018-09-25T08:49:27.043Z,5960
2018-09-25T08:50:07.612Z,5888
2018-09-25T08:50:48.207Z,5804
2018-09-25T08:51:28.768Z,5732
2018-09-25T08:52:09.336Z,5652
2018-09-25T08:52:49.897Z,5556
2018-09-25T08:53:30.541Z,5456
2018-09-25T08:54:11.068Z,5356
2018-09-25T08:54:51.619Z,5292
2018-09-25T08:55:32.182Z,5224
2018-09-25T08:56:12.760Z,5156
2018-09-25T08:56:53.356Z,5128
2018-09-25T08:57:33.924Z,5136
2018-09-25T08:58:14.503Z,5080
2018-09-25T08:58:55.056Z,5040
2018-09-25T08:59:35.629Z,4920
2018-09-25T09:00:16.191Z,4816
2018-09-25T09:00:56.843Z,4808
2018-09-25T09:01:37.322Z,4768
2018-09-25T09:02:17.894Z,4712
2018-09-25T09:02:58.464Z,4852
2018-09-25T09:03:39.028Z,4968
2018-09-25T09:04:19.587Z,4904
2018-09-25T09:05:00.174Z,4100
2018-09-25T09:05:41.985Z,4612
2018-09-25T09:06:22.528Z,4512
2018-09-25T09:07:03.093Z,4448
2018-09-25T09:07:43.720Z,4384
2018-09-25T09:08:24.393Z,4352
2018-09-25T09:09:04.849Z,4548
2018-09-25T09:09:45.403Z,4724
2018-09-25T09:10:25.980Z,4808
2018-09-25T09:11:06.539Z,3804
2018-09-25T09:11:47.109Z,4660
2018-09-25T09:12:27.673Z,4612
2018-09-25T09:13:08.239Z,4576
2018-09-25T09:13:48.821Z,4500
2018-09-25T09:14:29.379Z,4500
2018-09-25T09:15:09.963Z,3616
2018-09-25T09:15:50.538Z,4532
2018-09-25T09:16:31.154Z,4452
2018-09-25T09:17:11.709Z,4224
2018-09-25T09:17:52.351Z,4192
2018-09-25T09:18:32.878Z,4408
2018-09-25T09:19:13.434Z,3528
2018-09-25T09:19:54.051Z,3584
2018-09-25T09:20:34.631Z,4892
2018-09-25T09:21:15.198Z,5032
2018-09-25T09:21:55.764Z,5264
2018-09-25T09:22:36.321Z,3864
2018-09-25T09:23:16.911Z,3500
2018-09-25T09:23:57.478Z,4408
2018-09-25T09:24:38.052Z,3640
2018-09-25T09:25:18.682Z,4504
2018-09-25T09:25:59.186Z,4824
2018-09-25T09:26:39.761Z,4992
2018-09-25T09:27:20.338Z,5368